sensor_id;sensor_type;location;lat;lon;timestamp;P1;durP1;ratioP1;P2;durP2;ratioP2
37321;SDS011;23697;48.684;9.032;2022-07-29T00:02:01;8.15;;;5.80;;
37321;SDS011;23697;48.684;9.032;2022-07-29T00:04:28;8.15;;;5.70;;
37321;SDS011;23697;48.684;9.032;2022-07-29T00:06:55;8.77;;;6.13;;
37321;SDS011;23697;48.684;9.032;2022-07-29T00:09:22;8.35;;;5.78;;
37321;SDS011;23697;48.684;9.032;2022-07-29T00:11:50;7.85;;;5.70;;
37321;SDS011;23697;48.684;9.032;2022-07-29T00:14:18;7.97;;;5.53;;
37321;SDS011;23697;48.684;9.032;2022-07-29T00:16:45;8.82;;;6.28;;
37321;SDS011;23697;48.684;9.032;2022-07-29T00:19:12;9.30;;;5.90;;
37321;SDS011;23697;48.684;9.032;2022-07-29T00:21:38;7.78;;;5.80;;
37321;SDS011;23697;48.684;9.032;2022-07-29T00:24:05;9.20;;;5.88;;
37321;SDS011;23697;48.684;9.032;2022-07-29T00:26:33;8.63;;;6.07;;
37321;SDS011;23697;48.684;9.032;2022-07-29T00:29:01;9.50;;;5.82;;
37321;SDS011;23697;48.684;9.032;2022-07-29T00:31:29;9.47;;;6.33;;
37321;SDS011;23697;48.684;9.032;2022-07-29T00:33:56;7.20;;;5.85;;
37321;SDS011;23697;48.684;9.032;2022-07-29T00:36:23;7.88;;;6.10;;
37321;SDS011;23697;48.684;9.032;2022-07-29T00:38:49;7.70;;;5.72;;
37321;SDS011;23697;48.684;9.032;2022-07-29T00:41:16;8.30;;;5.68;;
37321;SDS011;23697;48.684;9.032;2022-07-29T00:43:44;8.93;;;5.53;;
37321;SDS011;23697;48.684;9.032;2022-07-29T00:46:13;8.90;;;5.28;;
37321;SDS011;23697;48.684;9.032;2022-07-29T00:48:39;11.30;;;5.68;;
37321;SDS011;23697;48.684;9.032;2022-07-29T00:51:06;7.70;;;5.30;;
37321;SDS011;23697;48.684;9.032;2022-07-29T00:53:35;6.70;;;4.80;;
37321;SDS011;23697;48.684;9.032;2022-07-29T00:56:02;6.80;;;5.10;;
37321;SDS011;23697;48.684;9.032;2022-07-29T00:58:30;7.80;;;4.80;;
37321;SDS011;23697;48.684;9.032;2022-07-29T01:00:58;6.40;;;4.80;;
37321;SDS011;23697;48.684;9.032;2022-07-29T01:03:26;7.30;;;4.82;;
37321;SDS011;23697;48.684;9.032;2022-07-29T01:05:53;7.38;;;5.05;;
37321;SDS011;23697;48.684;9.032;2022-07-29T01:08:20;7.57;;;4.70;;
37321;SDS011;23697;48.684;9.032;2022-07-29T01:10:49;6.13;;;4.60;;
37321;SDS011;23697;48.684;9.032;2022-07-29T01:13:17;6.60;;;4.50;;
37321;SDS011;23697;48.684;9.032;2022-07-29T01:15:46;6.75;;;4.70;;
37321;SDS011;23697;48.684;9.032;2022-07-29T01:18:18;5.60;;;4.43;;
37321;SDS011;23697;48.684;9.032;2022-07-29T01:20:59;5.60;;;4.57;;
37321;SDS011;23697;48.684;9.032;2022-07-29T01:23:47;6.93;;;4.30;;
37321;SDS011;23697;48.684;9.032;2022-07-29T01:26:42;7.25;;;4.28;;
37321;SDS011;23697;48.684;9.032;2022-07-29T01:29:16;5.95;;;4.28;;
37321;SDS011;23697;48.684;9.032;2022-07-29T01:31:56;5.65;;;4.40;;
37321;SDS011;23697;48.684;9.032;2022-07-29T01:34:27;10.85;;;4.82;;
37321;SDS011;23697;48.684;9.032;2022-07-29T01:37:03;7.20;;;4.88;;
37321;SDS011;23697;48.684;9.032;2022-07-29T01:39:35;7.35;;;4.70;;
37321;SDS011;23697;48.684;9.032;2022-07-29T01:42:05;6.25;;;4.40;;
37321;SDS011;23697;48.684;9.032;2022-07-29T01:44:39;7.35;;;4.60;;
37321;SDS011;23697;48.684;9.032;2022-07-29T01:47:14;6.07;;;4.63;;
37321;SDS011;23697;48.684;9.032;2022-07-29T01:49:46;6.57;;;4.43;;
37321;SDS011;23697;48.684;9.032;2022-07-29T01:52:19;8.23;;;5.03;;
37321;SDS011;23697;48.684;9.032;2022-07-29T01:54:51;6.63;;;4.38;;
37321;SDS011;23697;48.684;9.032;2022-07-29T01:57:21;7.50;;;4.95;;
37321;SDS011;23697;48.684;9.032;2022-07-29T01:59:55;7.13;;;4.57;;
37321;SDS011;23697;48.684;9.032;2022-07-29T02:02:24;7.15;;;4.50;;
37321;SDS011;23697;48.684;9.032;2022-07-29T02:04:53;6.20;;;4.45;;
37321;SDS011;23697;48.684;9.032;2022-07-29T02:07:21;6.57;;;4.60;;
37321;SDS011;23697;48.684;9.032;2022-07-29T02:09:51;5.72;;;4.15;;
37321;SDS011;23697;48.684;9.032;2022-07-29T02:12:19;6.70;;;4.20;;
37321;SDS011;23697;48.684;9.032;2022-07-29T02:14:48;6.47;;;4.50;;
37321;SDS011;23697;48.684;9.032;2022-07-29T02:17:21;6.80;;;4.53;;
37321;SDS011;23697;48.684;9.032;2022-07-29T02:19:51;5.97;;;4.15;;
37321;SDS011;23697;48.684;9.032;2022-07-29T02:22:19;5.50;;;4.43;;
37321;SDS011;23697;48.684;9.032;2022-07-29T02:24:48;5.22;;;4.40;;
37321;SDS011;23697;48.684;9.032;2022-07-29T02:27:17;5.85;;;4.20;;
37321;SDS011;23697;48.684;9.032;2022-07-29T02:29:46;5.65;;;4.53;;
37321;SDS011;23697;48.684;9.032;2022-07-29T02:32:15;6.28;;;4.40;;
37321;SDS011;23697;48.684;9.032;2022-07-29T02:34:44;7.07;;;4.53;;
37321;SDS011;23697;48.684;9.032;2022-07-29T02:37:13;5.50;;;4.40;;
37321;SDS011;23697;48.684;9.032;2022-07-29T02:39:43;6.85;;;4.05;;
37321;SDS011;23697;48.684;9.032;2022-07-29T02:42:11;7.15;;;4.43;;
37321;SDS011;23697;48.684;9.032;2022-07-29T02:44:40;6.68;;;4.50;;
37321;SDS011;23697;48.684;9.032;2022-07-29T02:47:10;5.53;;;4.22;;
37321;SDS011;23697;48.684;9.032;2022-07-29T02:49:42;7.45;;;4.25;;
37321;SDS011;23697;48.684;9.032;2022-07-29T02:52:18;7.63;;;3.90;;
37321;SDS011;23697;48.684;9.032;2022-07-29T02:54:51;6.68;;;4.30;;
37321;SDS011;23697;48.684;9.032;2022-07-29T02:57:21;6.57;;;4.13;;
37321;SDS011;23697;48.684;9.032;2022-07-29T02:59:55;5.60;;;3.97;;
37321;SDS011;23697;48.684;9.032;2022-07-29T03:02:25;5.88;;;4.30;;
37321;SDS011;23697;48.684;9.032;2022-07-29T03:04:54;5.93;;;4.55;;
37321;SDS011;23697;48.684;9.032;2022-07-29T03:07:22;6.10;;;4.47;;
37321;SDS011;23697;48.684;9.032;2022-07-29T03:09:50;5.38;;;4.40;;
37321;SDS011;23697;48.684;9.032;2022-07-29T03:12:17;7.22;;;4.70;;
37321;SDS011;23697;48.684;9.032;2022-07-29T03:14:45;7.43;;;4.80;;
37321;SDS011;23697;48.684;9.032;2022-07-29T03:17:13;8.15;;;4.88;;
37321;SDS011;23697;48.684;9.032;2022-07-29T03:19:41;8.25;;;4.85;;
37321;SDS011;23697;48.684;9.032;2022-07-29T03:22:10;6.70;;;4.78;;
37321;SDS011;23697;48.684;9.032;2022-07-29T03:24:37;6.75;;;4.95;;
37321;SDS011;23697;48.684;9.032;2022-07-29T03:27:04;6.63;;;4.80;;
37321;SDS011;23697;48.684;9.032;2022-07-29T03:29:31;6.90;;;4.80;;
37321;SDS011;23697;48.684;9.032;2022-07-29T03:31:58;6.03;;;4.93;;
37321;SDS011;23697;48.684;9.032;2022-07-29T03:34:25;7.53;;;4.65;;
37321;SDS011;23697;48.684;9.032;2022-07-29T03:36:54;7.10;;;5.10;;
37321;SDS011;23697;48.684;9.032;2022-07-29T03:39:23;8.48;;;4.85;;
37321;SDS011;23697;48.684;9.032;2022-07-29T03:41:52;7.28;;;4.93;;
37321;SDS011;23697;48.684;9.032;2022-07-29T03:44:21;6.03;;;4.47;;
37321;SDS011;23697;48.684;9.032;2022-07-29T03:46:50;6.15;;;4.38;;
37321;SDS011;23697;48.684;9.032;2022-07-29T03:49:19;6.78;;;4.47;;
37321;SDS011;23697;48.684;9.032;2022-07-29T03:51:49;6.00;;;4.30;;
37321;SDS011;23697;48.684;9.032;2022-07-29T03:54:16;6.47;;;4.00;;
37321;SDS011;23697;48.684;9.032;2022-07-29T03:56:46;6.75;;;4.00;;
37321;SDS011;23697;48.684;9.032;2022-07-29T03:59:15;5.18;;;3.85;;
37321;SDS011;23697;48.684;9.032;2022-07-29T04:01:44;4.88;;;3.70;;
37321;SDS011;23697;48.684;9.032;2022-07-29T04:04:12;5.95;;;4.00;;
37321;SDS011;23697;48.684;9.032;2022-07-29T04:06:39;5.40;;;3.80;;
37321;SDS011;23697;48.684;9.032;2022-07-29T04:09:07;5.95;;;3.85;;
37321;SDS011;23697;48.684;9.032;2022-07-29T04:11:34;6.30;;;3.78;;
37321;SDS011;23697;48.684;9.032;2022-07-29T04:14:03;4.90;;;3.70;;
37321;SDS011;23697;48.684;9.032;2022-07-29T04:16:31;5.35;;;3.70;;
37321;SDS011;23697;48.684;9.032;2022-07-29T04:18:58;5.72;;;3.50;;
37321;SDS011;23697;48.684;9.032;2022-07-29T04:21:25;5.93;;;3.50;;
37321;SDS011;23697;48.684;9.032;2022-07-29T04:23:52;4.85;;;3.60;;
37321;SDS011;23697;48.684;9.032;2022-07-29T04:26:19;4.75;;;3.22;;
37321;SDS011;23697;48.684;9.032;2022-07-29T04:28:46;5.07;;;3.60;;
37321;SDS011;23697;48.684;9.032;2022-07-29T04:31:15;5.95;;;3.42;;
37321;SDS011;23697;48.684;9.032;2022-07-29T04:33:41;4.75;;;3.40;;
37321;SDS011;23697;48.684;9.032;2022-07-29T04:36:08;4.57;;;3.20;;
37321;SDS011;23697;48.684;9.032;2022-07-29T04:38:36;5.72;;;3.53;;
37321;SDS011;23697;48.684;9.032;2022-07-29T04:41:04;5.40;;;3.38;;
37321;SDS011;23697;48.684;9.032;2022-07-29T04:43:31;4.45;;;3.60;;
37321;SDS011;23697;48.684;9.032;2022-07-29T04:45:58;4.68;;;3.42;;
37321;SDS011;23697;48.684;9.032;2022-07-29T04:48:27;5.40;;;3.42;;
37321;SDS011;23697;48.684;9.032;2022-07-29T04:50:54;6.25;;;3.40;;
37321;SDS011;23697;48.684;9.032;2022-07-29T04:53:21;5.65;;;3.47;;
37321;SDS011;23697;48.684;9.032;2022-07-29T04:55:48;5.35;;;3.60;;
37321;SDS011;23697;48.684;9.032;2022-07-29T04:58:15;6.95;;;3.60;;
37321;SDS011;23697;48.684;9.032;2022-07-29T05:00:42;5.00;;;3.40;;
37321;SDS011;23697;48.684;9.032;2022-07-29T05:03:09;4.53;;;3.50;;
37321;SDS011;23697;48.684;9.032;2022-07-29T05:05:37;6.13;;;3.70;;
37321;SDS011;23697;48.684;9.032;2022-07-29T05:08:04;4.60;;;3.50;;
37321;SDS011;23697;48.684;9.032;2022-07-29T05:10:31;6.18;;;3.50;;
37321;SDS011;23697;48.684;9.032;2022-07-29T05:13:00;4.60;;;3.60;;
37321;SDS011;23697;48.684;9.032;2022-07-29T05:15:27;7.20;;;3.65;;
37321;SDS011;23697;48.684;9.032;2022-07-29T05:17:55;5.10;;;3.67;;
37321;SDS011;23697;48.684;9.032;2022-07-29T05:20:22;5.38;;;3.60;;
37321;SDS011;23697;48.684;9.032;2022-07-29T05:22:54;4.90;;;3.60;;
37321;SDS011;23697;48.684;9.032;2022-07-29T05:25:21;5.45;;;3.70;;
37321;SDS011;23697;48.684;9.032;2022-07-29T05:27:48;5.90;;;3.60;;
37321;SDS011;23697;48.684;9.032;2022-07-29T05:30:15;7.45;;;3.90;;
37321;SDS011;23697;48.684;9.032;2022-07-29T05:32:42;7.95;;;3.65;;
37321;SDS011;23697;48.684;9.032;2022-07-29T05:35:09;5.65;;;3.45;;
37321;SDS011;23697;48.684;9.032;2022-07-29T05:37:36;5.00;;;3.67;;
37321;SDS011;23697;48.684;9.032;2022-07-29T05:40:05;5.90;;;3.88;;
37321;SDS011;23697;48.684;9.032;2022-07-29T05:42:33;5.50;;;4.03;;
37321;SDS011;23697;48.684;9.032;2022-07-29T05:45:00;6.22;;;4.15;;
37321;SDS011;23697;48.684;9.032;2022-07-29T05:47:28;5.68;;;4.00;;
37321;SDS011;23697;48.684;9.032;2022-07-29T05:49:55;6.22;;;4.03;;
37321;SDS011;23697;48.684;9.032;2022-07-29T05:52:22;5.40;;;4.28;;
37321;SDS011;23697;48.684;9.032;2022-07-29T05:54:49;5.63;;;4.20;;
37321;SDS011;23697;48.684;9.032;2022-07-29T05:57:19;5.80;;;4.20;;
37321;SDS011;23697;48.684;9.032;2022-07-29T05:59:47;7.38;;;4.43;;
37321;SDS011;23697;48.684;9.032;2022-07-29T06:02:15;6.13;;;4.22;;
37321;SDS011;23697;48.684;9.032;2022-07-29T06:04:42;7.40;;;4.47;;
37321;SDS011;23697;48.684;9.032;2022-07-29T06:07:09;5.78;;;4.50;;
37321;SDS011;23697;48.684;9.032;2022-07-29T06:09:36;5.97;;;4.43;;
37321;SDS011;23697;48.684;9.032;2022-07-29T06:12:03;9.48;;;4.10;;
37321;SDS011;23697;48.684;9.032;2022-07-29T06:14:32;6.95;;;4.50;;
37321;SDS011;23697;48.684;9.032;2022-07-29T06:16:59;6.88;;;4.10;;
37321;SDS011;23697;48.684;9.032;2022-07-29T06:19:25;7.10;;;4.30;;
37321;SDS011;23697;48.684;9.032;2022-07-29T06:21:52;6.32;;;4.30;;
37321;SDS011;23697;48.684;9.032;2022-07-29T06:24:19;8.38;;;4.72;;
37321;SDS011;23697;48.684;9.032;2022-07-29T06:26:46;6.47;;;4.38;;
37321;SDS011;23697;48.684;9.032;2022-07-29T06:29:13;6.43;;;4.50;;
37321;SDS011;23697;48.684;9.032;2022-07-29T06:31:42;7.47;;;4.45;;
37321;SDS011;23697;48.684;9.032;2022-07-29T06:34:08;7.60;;;4.47;;
37321;SDS011;23697;48.684;9.032;2022-07-29T06:36:35;6.72;;;4.65;;
37321;SDS011;23697;48.684;9.032;2022-07-29T06:39:04;8.32;;;4.82;;
37321;SDS011;23697;48.684;9.032;2022-07-29T06:41:32;7.13;;;4.97;;
37321;SDS011;23697;48.684;9.032;2022-07-29T06:43:59;6.63;;;4.80;;
37321;SDS011;23697;48.684;9.032;2022-07-29T06:46:26;7.72;;;4.68;;
37321;SDS011;23697;48.684;9.032;2022-07-29T06:48:55;8.88;;;4.70;;
37321;SDS011;23697;48.684;9.032;2022-07-29T06:51:22;7.78;;;4.55;;
37321;SDS011;23697;48.684;9.032;2022-07-29T06:53:49;6.22;;;4.47;;
37321;SDS011;23697;48.684;9.032;2022-07-29T06:56:16;8.18;;;4.50;;
37321;SDS011;23697;48.684;9.032;2022-07-29T06:58:43;7.38;;;4.70;;
37321;SDS011;23697;48.684;9.032;2022-07-29T07:01:10;8.98;;;4.35;;
37321;SDS011;23697;48.684;9.032;2022-07-29T07:03:37;7.05;;;4.50;;
37321;SDS011;23697;48.684;9.032;2022-07-29T07:06:06;6.97;;;4.70;;
37321;SDS011;23697;48.684;9.032;2022-07-29T07:08:33;6.57;;;4.30;;
37321;SDS011;23697;48.684;9.032;2022-07-29T07:11:00;7.90;;;4.97;;
37321;SDS011;23697;48.684;9.032;2022-07-29T07:13:27;7.07;;;4.80;;
37321;SDS011;23697;48.684;9.032;2022-07-29T07:15:59;6.78;;;5.13;;
37321;SDS011;23697;48.684;9.032;2022-07-29T07:18:26;8.77;;;4.75;;
37321;SDS011;23697;48.684;9.032;2022-07-29T07:20:53;7.35;;;4.93;;
37321;SDS011;23697;48.684;9.032;2022-07-29T07:23:21;6.78;;;4.80;;
37321;SDS011;23697;48.684;9.032;2022-07-29T07:25:52;6.43;;;4.70;;
37321;SDS011;23697;48.684;9.032;2022-07-29T07:28:19;7.28;;;5.00;;
37321;SDS011;23697;48.684;9.032;2022-07-29T07:30:46;7.55;;;4.72;;
37321;SDS011;23697;48.684;9.032;2022-07-29T07:33:13;6.50;;;4.75;;
37321;SDS011;23697;48.684;9.032;2022-07-29T07:35:40;9.05;;;4.70;;
37321;SDS011;23697;48.684;9.032;2022-07-29T07:38:07;7.15;;;4.70;;
37321;SDS011;23697;48.684;9.032;2022-07-29T07:40:36;6.47;;;4.88;;
37321;SDS011;23697;48.684;9.032;2022-07-29T07:43:02;8.07;;;4.60;;
37321;SDS011;23697;48.684;9.032;2022-07-29T07:45:29;6.05;;;4.72;;
37321;SDS011;23697;48.684;9.032;2022-07-29T07:47:58;7.82;;;4.82;;
37321;SDS011;23697;48.684;9.032;2022-07-29T07:50:25;7.78;;;5.05;;
37321;SDS011;23697;48.684;9.032;2022-07-29T07:52:53;7.90;;;5.00;;
37321;SDS011;23697;48.684;9.032;2022-07-29T07:55:23;10.32;;;5.18;;
37321;SDS011;23697;48.684;9.032;2022-07-29T07:57:52;9.20;;;4.95;;
37321;SDS011;23697;48.684;9.032;2022-07-29T08:00:19;7.65;;;4.72;;
37321;SDS011;23697;48.684;9.032;2022-07-29T08:02:47;9.88;;;4.70;;
37321;SDS011;23697;48.684;9.032;2022-07-29T08:05:14;7.45;;;4.65;;
37321;SDS011;23697;48.684;9.032;2022-07-29T08:07:43;6.82;;;4.60;;
37321;SDS011;23697;48.684;9.032;2022-07-29T08:10:11;9.20;;;4.82;;
37321;SDS011;23697;48.684;9.032;2022-07-29T08:12:39;5.85;;;4.40;;
37321;SDS011;23697;48.684;9.032;2022-07-29T08:15:08;6.90;;;4.63;;
37321;SDS011;23697;48.684;9.032;2022-07-29T08:17:35;8.35;;;4.75;;
37321;SDS011;23697;48.684;9.032;2022-07-29T08:20:02;7.15;;;4.85;;
37321;SDS011;23697;48.684;9.032;2022-07-29T08:22:30;6.35;;;4.35;;
37321;SDS011;23697;48.684;9.032;2022-07-29T08:24:57;7.43;;;4.63;;
37321;SDS011;23697;48.684;9.032;2022-07-29T08:27:24;9.13;;;5.30;;
37321;SDS011;23697;48.684;9.032;2022-07-29T08:29:54;9.75;;;4.70;;
37321;SDS011;23697;48.684;9.032;2022-07-29T08:32:23;7.63;;;4.32;;
37321;SDS011;23697;48.684;9.032;2022-07-29T08:34:49;7.97;;;4.75;;
37321;SDS011;23697;48.684;9.032;2022-07-29T08:40:04;10.98;;;5.00;;
37321;SDS011;23697;48.684;9.032;2022-07-29T08:45:28;7.53;;;4.72;;
37321;SDS011;23697;48.684;9.032;2022-07-29T08:47:58;10.52;;;4.55;;
37321;SDS011;23697;48.684;9.032;2022-07-29T08:50:25;7.85;;;4.90;;
37321;SDS011;23697;48.684;9.032;2022-07-29T08:52:52;7.70;;;4.43;;
37321;SDS011;23697;48.684;9.032;2022-07-29T08:55:18;7.85;;;4.43;;
37321;SDS011;23697;48.684;9.032;2022-07-29T08:57:46;7.47;;;4.47;;
37321;SDS011;23697;48.684;9.032;2022-07-29T09:00:13;8.27;;;4.53;;
37321;SDS011;23697;48.684;9.032;2022-07-29T09:02:42;9.85;;;4.60;;
37321;SDS011;23697;48.684;9.032;2022-07-29T09:05:13;9.00;;;4.60;;
37321;SDS011;23697;48.684;9.032;2022-07-29T09:07:40;10.27;;;4.55;;
37321;SDS011;23697;48.684;9.032;2022-07-29T09:10:09;9.90;;;4.40;;
37321;SDS011;23697;48.684;9.032;2022-07-29T09:12:36;12.93;;;4.88;;
37321;SDS011;23697;48.684;9.032;2022-07-29T09:15:03;9.48;;;4.40;;
37321;SDS011;23697;48.684;9.032;2022-07-29T09:17:39;6.82;;;4.00;;
37321;SDS011;23697;48.684;9.032;2022-07-29T09:20:10;6.55;;;4.47;;
37321;SDS011;23697;48.684;9.032;2022-07-29T09:22:39;9.00;;;4.60;;
37321;SDS011;23697;48.684;9.032;2022-07-29T09:25:12;10.10;;;4.80;;
37321;SDS011;23697;48.684;9.032;2022-07-29T09:27:39;8.48;;;4.60;;
37321;SDS011;23697;48.684;9.032;2022-07-29T09:30:06;9.88;;;4.57;;
37321;SDS011;23697;48.684;9.032;2022-07-29T09:32:53;10.38;;;4.55;;
37321;SDS011;23697;48.684;9.032;2022-07-29T09:35:22;8.25;;;4.38;;
37321;SDS011;23697;48.684;9.032;2022-07-29T09:37:51;10.07;;;4.50;;
37321;SDS011;23697;48.684;9.032;2022-07-29T09:40:19;8.18;;;4.13;;
37321;SDS011;23697;48.684;9.032;2022-07-29T09:42:47;8.13;;;4.27;;
37321;SDS011;23697;48.684;9.032;2022-07-29T09:45:26;12.95;;;4.40;;
37321;SDS011;23697;48.684;9.032;2022-07-29T09:48:00;9.93;;;4.53;;
37321;SDS011;23697;48.684;9.032;2022-07-29T09:50:42;7.15;;;4.10;;
37321;SDS011;23697;48.684;9.032;2022-07-29T09:53:09;7.65;;;4.25;;
37321;SDS011;23697;48.684;9.032;2022-07-29T09:55:50;7.97;;;4.65;;
37321;SDS011;23697;48.684;9.032;2022-07-29T09:58:19;9.25;;;4.20;;
37321;SDS011;23697;48.684;9.032;2022-07-29T10:00:47;7.38;;;4.30;;
37321;SDS011;23697;48.684;9.032;2022-07-29T10:03:16;8.20;;;4.10;;
37321;SDS011;23697;48.684;9.032;2022-07-29T10:05:45;6.28;;;4.10;;
37321;SDS011;23697;48.684;9.032;2022-07-29T10:08:12;10.80;;;4.20;;
37321;SDS011;23697;48.684;9.032;2022-07-29T10:10:40;8.20;;;4.40;;
37321;SDS011;23697;48.684;9.032;2022-07-29T10:13:09;8.55;;;4.57;;
37321;SDS011;23697;48.684;9.032;2022-07-29T10:15:37;8.55;;;4.50;;
37321;SDS011;23697;48.684;9.032;2022-07-29T10:18:06;7.63;;;4.28;;
37321;SDS011;23697;48.684;9.032;2022-07-29T10:20:34;7.05;;;4.40;;
37321;SDS011;23697;48.684;9.032;2022-07-29T10:23:03;8.20;;;4.40;;
37321;SDS011;23697;48.684;9.032;2022-07-29T10:25:30;10.20;;;4.50;;
37321;SDS011;23697;48.684;9.032;2022-07-29T10:27:57;7.35;;;4.10;;
37321;SDS011;23697;48.684;9.032;2022-07-29T10:30:25;8.07;;;4.38;;
37321;SDS011;23697;48.684;9.032;2022-07-29T10:35:46;10.25;;;4.40;;
37321;SDS011;23697;48.684;9.032;2022-07-29T10:44:20;10.75;;;4.80;;
37321;SDS011;23697;48.684;9.032;2022-07-29T10:46:48;8.68;;;4.80;;
37321;SDS011;23697;48.684;9.032;2022-07-29T10:49:17;10.07;;;4.70;;
37321;SDS011;23697;48.684;9.032;2022-07-29T10:51:59;11.77;;;4.93;;
37321;SDS011;23697;48.684;9.032;2022-07-29T10:54:41;29.52;;;9.10;;
37321;SDS011;23697;48.684;9.032;2022-07-29T10:57:14;13.35;;;6.13;;
37321;SDS011;23697;48.684;9.032;2022-07-29T10:59:42;15.63;;;6.82;;
37321;SDS011;23697;48.684;9.032;2022-07-29T11:05:13;14.90;;;7.93;;
37321;SDS011;23697;48.684;9.032;2022-07-29T11:10:44;13.60;;;7.03;;
37321;SDS011;23697;48.684;9.032;2022-07-29T11:13:11;12.63;;;6.85;;
37321;SDS011;23697;48.684;9.032;2022-07-29T11:15:51;12.90;;;6.25;;
37321;SDS011;23697;48.684;9.032;2022-07-29T11:18:19;12.13;;;6.07;;
37321;SDS011;23697;48.684;9.032;2022-07-29T11:20:47;8.40;;;5.40;;
37321;SDS011;23697;48.684;9.032;2022-07-29T11:23:18;7.47;;;4.72;;
37321;SDS011;23697;48.684;9.032;2022-07-29T11:28:52;12.18;;;6.45;;
37321;SDS011;23697;48.684;9.032;2022-07-29T11:31:32;10.55;;;5.78;;
37321;SDS011;23697;48.684;9.032;2022-07-29T11:34:20;12.23;;;5.90;;
37321;SDS011;23697;48.684;9.032;2022-07-29T11:39:43;8.85;;;5.50;;
37321;SDS011;23697;48.684;9.032;2022-07-29T11:45:22;10.10;;;5.28;;
37321;SDS011;23697;48.684;9.032;2022-07-29T11:47:57;10.57;;;5.85;;
37321;SDS011;23697;48.684;9.032;2022-07-29T11:53:11;9.82;;;5.45;;
37321;SDS011;23697;48.684;9.032;2022-07-29T11:55:39;8.27;;;5.30;;
37321;SDS011;23697;48.684;9.032;2022-07-29T11:58:08;8.45;;;5.00;;
37321;SDS011;23697;48.684;9.032;2022-07-29T12:00:35;8.50;;;5.63;;
37321;SDS011;23697;48.684;9.032;2022-07-29T12:03:05;7.67;;;5.60;;
37321;SDS011;23697;48.684;9.032;2022-07-29T12:05:35;8.40;;;5.65;;
37321;SDS011;23697;48.684;9.032;2022-07-29T12:08:04;7.77;;;5.60;;
37321;SDS011;23697;48.684;9.032;2022-07-29T12:10:36;10.75;;;6.05;;
37321;SDS011;23697;48.684;9.032;2022-07-29T12:13:03;10.43;;;6.50;;
37321;SDS011;23697;48.684;9.032;2022-07-29T12:15:32;9.90;;;6.70;;
37321;SDS011;23697;48.684;9.032;2022-07-29T12:18:08;8.05;;;5.93;;
37321;SDS011;23697;48.684;9.032;2022-07-29T12:20:36;9.30;;;6.40;;
37321;SDS011;23697;48.684;9.032;2022-07-29T12:23:04;9.60;;;5.75;;
37321;SDS011;23697;48.684;9.032;2022-07-29T12:25:33;7.82;;;5.70;;
37321;SDS011;23697;48.684;9.032;2022-07-29T12:28:01;8.93;;;5.80;;
37321;SDS011;23697;48.684;9.032;2022-07-29T12:30:38;9.50;;;5.78;;
37321;SDS011;23697;48.684;9.032;2022-07-29T12:33:20;12.15;;;6.55;;
37321;SDS011;23697;48.684;9.032;2022-07-29T12:35:49;8.73;;;5.80;;
37321;SDS011;23697;48.684;9.032;2022-07-29T12:38:17;7.80;;;5.70;;
37321;SDS011;23697;48.684;9.032;2022-07-29T12:40:45;7.38;;;5.35;;
37321;SDS011;23697;48.684;9.032;2022-07-29T12:43:14;9.05;;;5.40;;
37321;SDS011;23697;48.684;9.032;2022-07-29T12:45:43;9.00;;;5.50;;
37321;SDS011;23697;48.684;9.032;2022-07-29T12:48:12;7.47;;;5.25;;
37321;SDS011;23697;48.684;9.032;2022-07-29T12:50:52;6.68;;;4.88;;
37321;SDS011;23697;48.684;9.032;2022-07-29T12:53:20;11.68;;;5.95;;
37321;SDS011;23697;48.684;9.032;2022-07-29T12:55:48;11.43;;;6.72;;
37321;SDS011;23697;48.684;9.032;2022-07-29T12:58:27;17.40;;;7.15;;
37321;SDS011;23697;48.684;9.032;2022-07-29T13:01:01;11.43;;;6.47;;
37321;SDS011;23697;48.684;9.032;2022-07-29T13:03:40;10.20;;;6.07;;
37321;SDS011;23697;48.684;9.032;2022-07-29T13:06:33;10.85;;;5.80;;
37321;SDS011;23697;48.684;9.032;2022-07-29T13:09:03;9.43;;;5.93;;
37321;SDS011;23697;48.684;9.032;2022-07-29T13:11:36;10.40;;;6.55;;
37321;SDS011;23697;48.684;9.032;2022-07-29T13:14:05;11.55;;;6.05;;
37321;SDS011;23697;48.684;9.032;2022-07-29T13:16:35;11.02;;;7.00;;
37321;SDS011;23697;48.684;9.032;2022-07-29T13:19:07;11.13;;;6.75;;
37321;SDS011;23697;48.684;9.032;2022-07-29T13:21:37;14.52;;;7.47;;
37321;SDS011;23697;48.684;9.032;2022-07-29T13:24:05;13.68;;;7.90;;
37321;SDS011;23697;48.684;9.032;2022-07-29T13:26:33;11.25;;;7.50;;
37321;SDS011;23697;48.684;9.032;2022-07-29T13:29:01;19.23;;;8.38;;
37321;SDS011;23697;48.684;9.032;2022-07-29T13:31:28;19.92;;;8.80;;
37321;SDS011;23697;48.684;9.032;2022-07-29T13:33:57;16.05;;;8.82;;
37321;SDS011;23697;48.684;9.032;2022-07-29T13:36:25;17.60;;;9.57;;
37321;SDS011;23697;48.684;9.032;2022-07-29T13:38:52;16.25;;;8.88;;
37321;SDS011;23697;48.684;9.032;2022-07-29T13:41:19;12.43;;;8.48;;
37321;SDS011;23697;48.684;9.032;2022-07-29T13:43:45;12.68;;;9.05;;
37321;SDS011;23697;48.684;9.032;2022-07-29T13:46:12;13.23;;;9.60;;
37321;SDS011;23697;48.684;9.032;2022-07-29T13:48:39;13.63;;;10.70;;
37321;SDS011;23697;48.684;9.032;2022-07-29T13:51:08;16.05;;;9.40;;
37321;SDS011;23697;48.684;9.032;2022-07-29T13:53:34;11.15;;;8.10;;
37321;SDS011;23697;48.684;9.032;2022-07-29T13:56:01;10.32;;;7.47;;
37321;SDS011;23697;48.684;9.032;2022-07-29T13:58:30;9.60;;;8.00;;
37321;SDS011;23697;48.684;9.032;2022-07-29T14:00:58;13.23;;;9.30;;
37321;SDS011;23697;48.684;9.032;2022-07-29T14:03:25;12.63;;;9.20;;
37321;SDS011;23697;48.684;9.032;2022-07-29T14:05:52;12.57;;;9.38;;
37321;SDS011;23697;48.684;9.032;2022-07-29T14:08:22;10.93;;;8.18;;
37321;SDS011;23697;48.684;9.032;2022-07-29T14:10:49;11.57;;;7.93;;
37321;SDS011;23697;48.684;9.032;2022-07-29T14:13:16;10.02;;;8.20;;
37321;SDS011;23697;48.684;9.032;2022-07-29T14:15:43;9.88;;;8.32;;
37321;SDS011;23697;48.684;9.032;2022-07-29T14:18:10;13.88;;;7.90;;
37321;SDS011;23697;48.684;9.032;2022-07-29T14:20:43;12.35;;;8.70;;
37321;SDS011;23697;48.684;9.032;2022-07-29T14:23:12;10.75;;;8.85;;
37321;SDS011;23697;48.684;9.032;2022-07-29T14:25:40;10.23;;;7.43;;
37321;SDS011;23697;48.684;9.032;2022-07-29T14:28:07;12.02;;;8.75;;
37321;SDS011;23697;48.684;9.032;2022-07-29T14:30:34;10.50;;;7.78;;
37321;SDS011;23697;48.684;9.032;2022-07-29T14:33:01;11.18;;;7.88;;
37321;SDS011;23697;48.684;9.032;2022-07-29T14:35:28;13.02;;;8.77;;
37321;SDS011;23697;48.684;9.032;2022-07-29T14:37:55;11.50;;;7.70;;
37321;SDS011;23697;48.684;9.032;2022-07-29T14:40:22;12.18;;;7.95;;
37321;SDS011;23697;48.684;9.032;2022-07-29T14:42:51;12.07;;;8.07;;
37321;SDS011;23697;48.684;9.032;2022-07-29T14:45:18;10.48;;;7.32;;
37321;SDS011;23697;48.684;9.032;2022-07-29T14:47:45;10.88;;;8.20;;
37321;SDS011;23697;48.684;9.032;2022-07-29T14:50:14;10.43;;;7.70;;
37321;SDS011;23697;48.684;9.032;2022-07-29T14:52:40;8.68;;;7.20;;
37321;SDS011;23697;48.684;9.032;2022-07-29T14:55:08;11.77;;;8.13;;
37321;SDS011;23697;48.684;9.032;2022-07-29T14:57:35;9.90;;;7.90;;
37321;SDS011;23697;48.684;9.032;2022-07-29T15:00:04;12.90;;;8.68;;
37321;SDS011;23697;48.684;9.032;2022-07-29T15:02:32;14.10;;;7.63;;
37321;SDS011;23697;48.684;9.032;2022-07-29T15:04:59;9.63;;;7.88;;
37321;SDS011;23697;48.684;9.032;2022-07-29T15:07:26;11.60;;;8.02;;
37321;SDS011;23697;48.684;9.032;2022-07-29T15:09:53;11.07;;;7.72;;
37321;SDS011;23697;48.684;9.032;2022-07-29T15:12:20;9.15;;;6.70;;
37321;SDS011;23697;48.684;9.032;2022-07-29T15:14:47;13.32;;;7.05;;
37321;SDS011;23697;48.684;9.032;2022-07-29T15:17:15;8.10;;;6.47;;
37321;SDS011;23697;48.684;9.032;2022-07-29T15:19:45;8.52;;;6.22;;
37321;SDS011;23697;48.684;9.032;2022-07-29T15:22:15;10.38;;;6.50;;
37321;SDS011;23697;48.684;9.032;2022-07-29T15:24:42;9.00;;;6.75;;
37321;SDS011;23697;48.684;9.032;2022-07-29T15:27:10;10.95;;;7.22;;
37321;SDS011;23697;48.684;9.032;2022-07-29T15:29:39;11.30;;;7.45;;